Accueil
METAR-TAF:

METAR-TAF

Aéroports :

Aéroport municipal de Bismarck

Bismarck, Dakota du Nord, États-Unis

latitude: 46-46-57N, longitude: 100-45-26W, altitude: 511 m

Observation

Le bulletin a été fait il y a 56 minutes, à 23:52 UTC
Vent 4 kt de sud/sud-ouest
Température -17°C
Humidité 71%
Pression 1037 hPa
Visibilité: 16.1 km
Ciel clair

METAR: KBIS 112352Z 21004KT 10SM CLR M17/M21 A3061 RMK AO2 SLP412 T11671206 11128 21167 56012

Heure: 18:48 (00:48 UTC)

Prévision

Le bulletin a été fait il y a 1 heure et 10 minutes, à 23:38 UTC
Prévision valable du 12 à 00 UTC au 12 à 24 UTC
Vent 7 kt de ouest/sud-ouest
Visibilité: 10 km
Ciel clair
A partir de 12 à 0500 UTC
Vent 5 kt de sud
Visibilité: 10 km
Ciel clair
A partir de 12 à 1600 UTC
Vent 11 kt de sud/sud-ouest
Visibilité: 10 km
Nuages fragmentés à une hauteur de 25000 ft

TAF: KBIS 112338Z 1200/1224 25007KT P6SM SKC FM120500 18005KT P6SM SKC FM121600 20011KT P6SM BKN250

Observations et prévisions météorologiques de plus de 4000 aéroports (messages METAR et TAF).

Les stations disponibles sont représentées par des disques jaunes et rouges sur la carte.

Passer la souris dessus pour voir le nom de la station.

Cliquer dessus pour voir les observations et prévisions météorologiques.

Pour changer de carte: cliquez sur les boutons verts avec une croix noire pour zoomer, sur le bouton vert avec un tiret pour effectuer un zoom arrière, ou sur les flèches vertes pour les cartes adjacentes.


METAR-TAF: